Lobatos, Colorado
Current Conditions -  °F | °C
As of 7:52 PM on Sunday 21 Dec 2014 (Local Time) from KALS Reporting Station
Overcast Overcast  
Wind Chill: 32°   Ceiling: 6000
Heat Index: 32°   Visibility: 10mi
Dew Point: 24°   Wind: 3mph
Humidity: 73%   Direction: 120°ESE
Pressure: 29.79"   Gusts: NA
Location:  37.1816°N, 106.262°W
Report Text: KALS 220252Z AUTO 12003KT 10SM BKN060 OVC075 00/M04 A2979 RMK AO2 SLP117 T00001044 56006
Loading
Personal Weather Stations






























Interactive Weather Map New forecast layout! Learn more

10-Day Weather Forecast

Advertisements
Track Severe Weather on mobile